sensor_id;sensor_type;location;lat;lon;timestamp;P1;durP1;ratioP1;P2;durP2;ratioP2
15258;SDS011;34462;51.368;12.364;2023-10-08T00:00:45;7.82;;;4.63;;
15258;SDS011;34462;51.368;12.364;2023-10-08T00:03:18;6.22;;;3.80;;
15258;SDS011;34462;51.368;12.364;2023-10-08T00:05:48;5.00;;;4.30;;
15258;SDS011;34462;51.368;12.364;2023-10-08T00:08:16;7.55;;;4.60;;
15258;SDS011;34462;51.368;12.364;2023-10-08T00:10:45;7.30;;;4.28;;
15258;SDS011;34462;51.368;12.364;2023-10-08T00:13:14;6.75;;;4.30;;
15258;SDS011;34462;51.368;12.364;2023-10-08T00:15:43;8.35;;;4.63;;
15258;SDS011;34462;51.368;12.364;2023-10-08T00:18:19;5.63;;;4.07;;
15258;SDS011;34462;51.368;12.364;2023-10-08T00:20:50;5.47;;;4.40;;
15258;SDS011;34462;51.368;12.364;2023-10-08T00:23:25;6.38;;;5.13;;
15258;SDS011;34462;51.368;12.364;2023-10-08T00:25:53;7.60;;;4.70;;
15258;SDS011;34462;51.368;12.364;2023-10-08T00:28:22;7.38;;;5.13;;
15258;SDS011;34462;51.368;12.364;2023-10-08T00:30:54;10.27;;;5.38;;
15258;SDS011;34462;51.368;12.364;2023-10-08T00:33:23;7.60;;;5.15;;
15258;SDS011;34462;51.368;12.364;2023-10-08T00:35:53;7.90;;;5.32;;
15258;SDS011;34462;51.368;12.364;2023-10-08T00:38:22;8.07;;;5.72;;
15258;SDS011;34462;51.368;12.364;2023-10-08T00:40:58;8.18;;;5.45;;
15258;SDS011;34462;51.368;12.364;2023-10-08T00:43:29;8.38;;;5.43;;
15258;SDS011;34462;51.368;12.364;2023-10-08T00:45:59;9.60;;;5.93;;
15258;SDS011;34462;51.368;12.364;2023-10-08T00:48:28;9.40;;;5.82;;
15258;SDS011;34462;51.368;12.364;2023-10-08T00:51:03;10.05;;;6.35;;
15258;SDS011;34462;51.368;12.364;2023-10-08T00:53:50;8.73;;;6.35;;
15258;SDS011;34462;51.368;12.364;2023-10-08T00:56:26;8.38;;;5.70;;
15258;SDS011;34462;51.368;12.364;2023-10-08T00:59:12;8.88;;;5.82;;
15258;SDS011;34462;51.368;12.364;2023-10-08T01:01:42;9.38;;;6.00;;
15258;SDS011;34462;51.368;12.364;2023-10-08T01:04:18;7.60;;;6.15;;
15258;SDS011;34462;51.368;12.364;2023-10-08T01:06:51;9.27;;;6.05;;
15258;SDS011;34462;51.368;12.364;2023-10-08T01:09:22;7.15;;;5.70;;
15258;SDS011;34462;51.368;12.364;2023-10-08T01:12:08;10.57;;;5.95;;
15258;SDS011;34462;51.368;12.364;2023-10-08T01:14:41;7.88;;;6.20;;
15258;SDS011;34462;51.368;12.364;2023-10-08T01:17:12;8.05;;;5.82;;
15258;SDS011;34462;51.368;12.364;2023-10-08T01:19:42;10.73;;;5.00;;
15258;SDS011;34462;51.368;12.364;2023-10-08T01:22:17;9.18;;;5.63;;
15258;SDS011;34462;51.368;12.364;2023-10-08T01:24:48;8.55;;;5.75;;
15258;SDS011;34462;51.368;12.364;2023-10-08T01:27:18;12.63;;;6.13;;
15258;SDS011;34462;51.368;12.364;2023-10-08T01:29:48;9.15;;;5.38;;
15258;SDS011;34462;51.368;12.364;2023-10-08T01:32:18;7.25;;;5.07;;
15258;SDS011;34462;51.368;12.364;2023-10-08T01:34:49;6.57;;;4.30;;
15258;SDS011;34462;51.368;12.364;2023-10-08T01:37:18;6.05;;;3.90;;
15258;SDS011;34462;51.368;12.364;2023-10-08T01:39:48;4.55;;;3.05;;
15258;SDS011;34462;51.368;12.364;2023-10-08T01:42:16;3.00;;;1.98;;
15258;SDS011;34462;51.368;12.364;2023-10-08T01:44:46;1.70;;;1.20;;
15258;SDS011;34462;51.368;12.364;2023-10-08T01:47:17;1.75;;;0.90;;
15258;SDS011;34462;51.368;12.364;2023-10-08T01:49:46;0.70;;;0.70;;
15258;SDS011;34462;51.368;12.364;2023-10-08T01:52:15;0.85;;;0.57;;
15258;SDS011;34462;51.368;12.364;2023-10-08T01:54:48;0.50;;;0.50;;
15258;SDS011;34462;51.368;12.364;2023-10-08T01:57:20;0.52;;;0.30;;
15258;SDS011;34462;51.368;12.364;2023-10-08T01:59:48;0.30;;;0.30;;
15258;SDS011;34462;51.368;12.364;2023-10-08T02:02:16;0.40;;;0.40;;
15258;SDS011;34462;51.368;12.364;2023-10-08T02:04:44;0.40;;;0.40;;
15258;SDS011;34462;51.368;12.364;2023-10-08T02:07:13;0.30;;;0.30;;
15258;SDS011;34462;51.368;12.364;2023-10-08T02:09:41;0.30;;;0.30;;
15258;SDS011;34462;51.368;12.364;2023-10-08T02:12:11;0.20;;;0.20;;
15258;SDS011;34462;51.368;12.364;2023-10-08T02:14:41;0.57;;;0.30;;
15258;SDS011;34462;51.368;12.364;2023-10-08T02:17:10;0.28;;;0.28;;
15258;SDS011;34462;51.368;12.364;2023-10-08T02:19:39;0.20;;;0.20;;
15258;SDS011;34462;51.368;12.364;2023-10-08T02:22:08;0.20;;;0.20;;
15258;SDS011;34462;51.368;12.364;2023-10-08T02:24:37;0.20;;;0.20;;
15258;SDS011;34462;51.368;12.364;2023-10-08T02:27:06;0.28;;;0.28;;
15258;SDS011;34462;51.368;12.364;2023-10-08T02:29:35;0.30;;;0.30;;
15258;SDS011;34462;51.368;12.364;2023-10-08T02:32:04;0.30;;;0.20;;
15258;SDS011;34462;51.368;12.364;2023-10-08T02:34:32;0.20;;;0.20;;
15258;SDS011;34462;51.368;12.364;2023-10-08T02:37:01;0.25;;;0.25;;
15258;SDS011;34462;51.368;12.364;2023-10-08T02:39:31;0.40;;;0.30;;
15258;SDS011;34462;51.368;12.364;2023-10-08T02:42:01;0.35;;;0.30;;
15258;SDS011;34462;51.368;12.364;2023-10-08T02:44:29;0.30;;;0.30;;
15258;SDS011;34462;51.368;12.364;2023-10-08T02:46:59;0.30;;;0.30;;
15258;SDS011;34462;51.368;12.364;2023-10-08T02:49:29;0.43;;;0.20;;
15258;SDS011;34462;51.368;12.364;2023-10-08T02:51:58;0.30;;;0.30;;
15258;SDS011;34462;51.368;12.364;2023-10-08T02:54:26;0.43;;;0.30;;
15258;SDS011;34462;51.368;12.364;2023-10-08T02:57:02;0.30;;;0.30;;
15258;SDS011;34462;51.368;12.364;2023-10-08T02:59:37;0.40;;;0.40;;
15258;SDS011;34462;51.368;12.364;2023-10-08T03:02:08;0.40;;;0.40;;
15258;SDS011;34462;51.368;12.364;2023-10-08T03:04:42;0.50;;;0.50;;
15258;SDS011;34462;51.368;12.364;2023-10-08T03:07:12;0.40;;;0.40;;
15258;SDS011;34462;51.368;12.364;2023-10-08T03:09:49;0.70;;;0.70;;
15258;SDS011;34462;51.368;12.364;2023-10-08T03:12:29;0.60;;;0.60;;
15258;SDS011;34462;51.368;12.364;2023-10-08T03:14:59;0.60;;;0.60;;
15258;SDS011;34462;51.368;12.364;2023-10-08T03:17:40;0.50;;;0.50;;
15258;SDS011;34462;51.368;12.364;2023-10-08T03:20:17;0.20;;;0.20;;
15258;SDS011;34462;51.368;12.364;2023-10-08T03:22:56;0.30;;;0.30;;
15258;SDS011;34462;51.368;12.364;2023-10-08T03:25:24;0.20;;;0.20;;
15258;SDS011;34462;51.368;12.364;2023-10-08T03:27:54;0.30;;;0.30;;
15258;SDS011;34462;51.368;12.364;2023-10-08T03:30:25;0.20;;;0.20;;
15258;SDS011;34462;51.368;12.364;2023-10-08T03:32:55;0.60;;;0.30;;
15258;SDS011;34462;51.368;12.364;2023-10-08T03:35:23;0.20;;;0.20;;
15258;SDS011;34462;51.368;12.364;2023-10-08T03:37:57;0.30;;;0.20;;
15258;SDS011;34462;51.368;12.364;2023-10-08T03:40:46;1.10;;;0.30;;
15258;SDS011;34462;51.368;12.364;2023-10-08T03:43:16;0.30;;;0.20;;
15258;SDS011;34462;51.368;12.364;2023-10-08T03:45:50;0.70;;;0.30;;
15258;SDS011;34462;51.368;12.364;2023-10-08T03:48:22;0.20;;;0.20;;
15258;SDS011;34462;51.368;12.364;2023-10-08T03:50:56;0.20;;;0.20;;
15258;SDS011;34462;51.368;12.364;2023-10-08T03:53:26;0.83;;;0.30;;
15258;SDS011;34462;51.368;12.364;2023-10-08T03:55:57;0.20;;;0.20;;
15258;SDS011;34462;51.368;12.364;2023-10-08T03:58:31;0.20;;;0.20;;
15258;SDS011;34462;51.368;12.364;2023-10-08T04:01:07;0.50;;;0.50;;
15258;SDS011;34462;51.368;12.364;2023-10-08T04:03:38;0.57;;;0.50;;
15258;SDS011;34462;51.368;12.364;2023-10-08T04:06:24;0.60;;;0.60;;
15258;SDS011;34462;51.368;12.364;2023-10-08T04:09:04;0.70;;;0.70;;
15258;SDS011;34462;51.368;12.364;2023-10-08T04:11:43;1.00;;;1.00;;
15258;SDS011;34462;51.368;12.364;2023-10-08T04:14:25;1.00;;;1.00;;
15258;SDS011;34462;51.368;12.364;2023-10-08T04:16:54;1.67;;;1.10;;
15258;SDS011;34462;51.368;12.364;2023-10-08T04:19:27;1.40;;;1.30;;
15258;SDS011;34462;51.368;12.364;2023-10-08T04:21:55;1.50;;;1.40;;
15258;SDS011;34462;51.368;12.364;2023-10-08T04:24:24;1.57;;;1.37;;
15258;SDS011;34462;51.368;12.364;2023-10-08T04:27:01;1.97;;;1.20;;
15258;SDS011;34462;51.368;12.364;2023-10-08T04:29:32;1.77;;;1.17;;
15258;SDS011;34462;51.368;12.364;2023-10-08T04:32:03;1.30;;;1.20;;
15258;SDS011;34462;51.368;12.364;2023-10-08T04:34:37;1.20;;;1.10;;
15258;SDS011;34462;51.368;12.364;2023-10-08T04:37:10;1.40;;;1.30;;
15258;SDS011;34462;51.368;12.364;2023-10-08T04:39:39;1.70;;;1.50;;
15258;SDS011;34462;51.368;12.364;2023-10-08T04:42:20;1.07;;;0.90;;
15258;SDS011;34462;51.368;12.364;2023-10-08T04:44:53;1.27;;;0.80;;
15258;SDS011;34462;51.368;12.364;2023-10-08T04:47:22;1.92;;;0.80;;
15258;SDS011;34462;51.368;12.364;2023-10-08T04:50:02;1.27;;;0.70;;
15258;SDS011;34462;51.368;12.364;2023-10-08T04:52:32;1.60;;;0.80;;
15258;SDS011;34462;51.368;12.364;2023-10-08T04:55:12;1.87;;;1.00;;
15258;SDS011;34462;51.368;12.364;2023-10-08T04:57:46;1.48;;;1.00;;
15258;SDS011;34462;51.368;12.364;2023-10-08T05:00:15;2.73;;;1.20;;
15258;SDS011;34462;51.368;12.364;2023-10-08T05:03:04;2.63;;;1.40;;
15258;SDS011;34462;51.368;12.364;2023-10-08T05:05:42;1.93;;;1.20;;
15258;SDS011;34462;51.368;12.364;2023-10-08T05:08:33;3.47;;;1.50;;
15258;SDS011;34462;51.368;12.364;2023-10-08T05:11:14;1.87;;;1.30;;
15258;SDS011;34462;51.368;12.364;2023-10-08T05:13:51;2.40;;;1.13;;
15258;SDS011;34462;51.368;12.364;2023-10-08T05:16:32;2.80;;;1.30;;
15258;SDS011;34462;51.368;12.364;2023-10-08T05:19:10;3.73;;;1.10;;
15258;SDS011;34462;51.368;12.364;2023-10-08T05:22:15;1.87;;;1.20;;
15258;SDS011;34462;51.368;12.364;2023-10-08T05:25:00;2.83;;;1.20;;
15258;SDS011;34462;51.368;12.364;2023-10-08T05:27:37;2.63;;;1.30;;
15258;SDS011;34462;51.368;12.364;2023-10-08T05:30:24;1.70;;;1.30;;
15258;SDS011;34462;51.368;12.364;2023-10-08T05:33:04;3.50;;;1.30;;
15258;SDS011;34462;51.368;12.364;2023-10-08T05:35:39;3.57;;;1.47;;
15258;SDS011;34462;51.368;12.364;2023-10-08T05:38:22;3.60;;;1.40;;
15258;SDS011;34462;51.368;12.364;2023-10-08T05:41:04;4.17;;;1.30;;
15258;SDS011;34462;51.368;12.364;2023-10-08T05:43:43;3.77;;;1.47;;
15258;SDS011;34462;51.368;12.364;2023-10-08T05:46:40;2.07;;;1.30;;
15258;SDS011;34462;51.368;12.364;2023-10-08T05:49:32;2.28;;;1.40;;
15258;SDS011;34462;51.368;12.364;2023-10-08T05:52:20;3.00;;;1.50;;
15258;SDS011;34462;51.368;12.364;2023-10-08T05:55:09;3.20;;;1.20;;
15258;SDS011;34462;51.368;12.364;2023-10-08T05:57:52;3.80;;;1.77;;
15258;SDS011;34462;51.368;12.364;2023-10-08T06:00:40;3.57;;;1.53;;
15258;SDS011;34462;51.368;12.364;2023-10-08T06:03:32;2.83;;;1.20;;
15258;SDS011;34462;51.368;12.364;2023-10-08T06:06:04;2.97;;;1.40;;
15258;SDS011;34462;51.368;12.364;2023-10-08T06:09:06;5.87;;;2.07;;
15258;SDS011;34462;51.368;12.364;2023-10-08T06:11:49;2.93;;;1.80;;
15258;SDS011;34462;51.368;12.364;2023-10-08T06:14:34;2.77;;;1.40;;
15258;SDS011;34462;51.368;12.364;2023-10-08T06:17:35;4.60;;;1.37;;
15258;SDS011;34462;51.368;12.364;2023-10-08T06:20:24;4.60;;;1.53;;
15258;SDS011;34462;51.368;12.364;2023-10-08T06:22:53;2.83;;;1.40;;
15258;SDS011;34462;51.368;12.364;2023-10-08T06:25:27;4.77;;;1.30;;
15258;SDS011;34462;51.368;12.364;2023-10-08T06:27:58;3.00;;;1.50;;
15258;SDS011;34462;51.368;12.364;2023-10-08T06:30:29;2.43;;;1.47;;
15258;SDS011;34462;51.368;12.364;2023-10-08T06:33:01;3.57;;;1.70;;
15258;SDS011;34462;51.368;12.364;2023-10-08T06:35:31;3.67;;;1.60;;
15258;SDS011;34462;51.368;12.364;2023-10-08T06:37:59;3.30;;;1.80;;
15258;SDS011;34462;51.368;12.364;2023-10-08T06:40:33;3.13;;;1.83;;
15258;SDS011;34462;51.368;12.364;2023-10-08T06:43:12;4.17;;;1.90;;
15258;SDS011;34462;51.368;12.364;2023-10-08T06:45:48;4.17;;;2.17;;
15258;SDS011;34462;51.368;12.364;2023-10-08T06:48:20;3.70;;;2.23;;
15258;SDS011;34462;51.368;12.364;2023-10-08T06:50:51;4.93;;;2.50;;
15258;SDS011;34462;51.368;12.364;2023-10-08T06:53:24;5.50;;;2.30;;
15258;SDS011;34462;51.368;12.364;2023-10-08T06:55:56;4.53;;;2.30;;
15258;SDS011;34462;51.368;12.364;2023-10-08T06:58:31;3.27;;;2.33;;
15258;SDS011;34462;51.368;12.364;2023-10-08T07:01:00;4.27;;;1.90;;
15258;SDS011;34462;51.368;12.364;2023-10-08T07:03:31;6.63;;;2.10;;
15258;SDS011;34462;51.368;12.364;2023-10-08T07:06:01;6.67;;;2.13;;
15258;SDS011;34462;51.368;12.364;2023-10-08T07:08:43;4.37;;;1.90;;
15258;SDS011;34462;51.368;12.364;2023-10-08T07:11:19;5.60;;;1.93;;
15258;SDS011;34462;51.368;12.364;2023-10-08T07:13:49;5.17;;;2.10;;
15258;SDS011;34462;51.368;12.364;2023-10-08T07:16:18;6.03;;;1.90;;
15258;SDS011;34462;51.368;12.364;2023-10-08T07:18:47;3.33;;;1.37;;
15258;SDS011;34462;51.368;12.364;2023-10-08T07:21:18;4.93;;;1.90;;
15258;SDS011;34462;51.368;12.364;2023-10-08T07:23:54;4.67;;;1.60;;
15258;SDS011;34462;51.368;12.364;2023-10-08T07:26:26;6.77;;;2.27;;
15258;SDS011;34462;51.368;12.364;2023-10-08T07:29:05;2.97;;;1.60;;
15258;SDS011;34462;51.368;12.364;2023-10-08T07:31:35;4.63;;;1.77;;
15258;SDS011;34462;51.368;12.364;2023-10-08T07:34:08;4.27;;;1.90;;
15258;SDS011;34462;51.368;12.364;2023-10-08T07:36:45;3.60;;;1.53;;
15258;SDS011;34462;51.368;12.364;2023-10-08T07:39:15;5.23;;;2.20;;
15258;SDS011;34462;51.368;12.364;2023-10-08T07:42:01;5.33;;;1.90;;
15258;SDS011;34462;51.368;12.364;2023-10-08T07:44:36;4.00;;;1.60;;
15258;SDS011;34462;51.368;12.364;2023-10-08T07:47:06;2.37;;;1.40;;
15258;SDS011;34462;51.368;12.364;2023-10-08T07:49:40;2.57;;;1.60;;
15258;SDS011;34462;51.368;12.364;2023-10-08T07:52:11;2.43;;;1.70;;
15258;SDS011;34462;51.368;12.364;2023-10-08T07:54:42;3.73;;;1.50;;
15258;SDS011;34462;51.368;12.364;2023-10-08T07:57:10;3.13;;;1.80;;
15258;SDS011;34462;51.368;12.364;2023-10-08T07:59:45;3.47;;;1.57;;
15258;SDS011;34462;51.368;12.364;2023-10-08T08:02:15;3.22;;;1.98;;
15258;SDS011;34462;51.368;12.364;2023-10-08T08:04:49;7.28;;;1.50;;
15258;SDS011;34462;51.368;12.364;2023-10-08T08:07:19;4.37;;;1.73;;
15258;SDS011;34462;51.368;12.364;2023-10-08T08:09:48;4.70;;;1.87;;
15258;SDS011;34462;51.368;12.364;2023-10-08T08:12:25;3.07;;;1.90;;
15258;SDS011;34462;51.368;12.364;2023-10-08T08:14:56;3.67;;;1.70;;
15258;SDS011;34462;51.368;12.364;2023-10-08T08:17:24;6.20;;;2.07;;
15258;SDS011;34462;51.368;12.364;2023-10-08T08:19:52;4.22;;;1.92;;
15258;SDS011;34462;51.368;12.364;2023-10-08T08:22:21;3.97;;;1.77;;
15258;SDS011;34462;51.368;12.364;2023-10-08T08:24:57;4.73;;;1.73;;
15258;SDS011;34462;51.368;12.364;2023-10-08T08:27:32;3.17;;;1.75;;
15258;SDS011;34462;51.368;12.364;2023-10-08T08:30:02;3.13;;;1.70;;
15258;SDS011;34462;51.368;12.364;2023-10-08T08:32:37;2.80;;;1.83;;
15258;SDS011;34462;51.368;12.364;2023-10-08T08:35:10;4.25;;;2.20;;
15258;SDS011;34462;51.368;12.364;2023-10-08T08:37:43;3.70;;;1.80;;
15258;SDS011;34462;51.368;12.364;2023-10-08T08:40:13;3.93;;;1.93;;
15258;SDS011;34462;51.368;12.364;2023-10-08T08:42:44;2.63;;;1.98;;
15258;SDS011;34462;51.368;12.364;2023-10-08T08:45:18;5.00;;;2.08;;
15258;SDS011;34462;51.368;12.364;2023-10-08T08:47:47;4.30;;;2.10;;
15258;SDS011;34462;51.368;12.364;2023-10-08T08:50:16;5.38;;;2.20;;
15258;SDS011;34462;51.368;12.364;2023-10-08T08:52:45;3.55;;;1.90;;
15258;SDS011;34462;51.368;12.364;2023-10-08T08:55:14;5.47;;;2.00;;
15258;SDS011;34462;51.368;12.364;2023-10-08T08:57:45;3.72;;;1.80;;
15258;SDS011;34462;51.368;12.364;2023-10-08T09:00:19;3.90;;;2.28;;
15258;SDS011;34462;51.368;12.364;2023-10-08T09:02:52;3.83;;;2.00;;
15258;SDS011;34462;51.368;12.364;2023-10-08T09:05:22;3.88;;;2.15;;
15258;SDS011;34462;51.368;12.364;2023-10-08T09:07:55;4.15;;;2.38;;
15258;SDS011;34462;51.368;12.364;2023-10-08T09:10:26;4.93;;;2.17;;
15258;SDS011;34462;51.368;12.364;2023-10-08T09:12:55;5.82;;;2.38;;
15258;SDS011;34462;51.368;12.364;2023-10-08T09:15:27;4.50;;;2.10;;
15258;SDS011;34462;51.368;12.364;2023-10-08T09:17:56;4.10;;;2.20;;
15258;SDS011;34462;51.368;12.364;2023-10-08T09:20:27;4.35;;;2.00;;
15258;SDS011;34462;51.368;12.364;2023-10-08T09:25:48;4.32;;;2.50;;
15258;SDS011;34462;51.368;12.364;2023-10-08T09:28:18;4.93;;;2.40;;
15258;SDS011;34462;51.368;12.364;2023-10-08T09:30:49;3.92;;;2.40;;
15258;SDS011;34462;51.368;12.364;2023-10-08T09:33:19;4.93;;;2.55;;
15258;SDS011;34462;51.368;12.364;2023-10-08T09:35:48;5.55;;;2.80;;
15258;SDS011;34462;51.368;12.364;2023-10-08T09:38:17;4.40;;;2.70;;
15258;SDS011;34462;51.368;12.364;2023-10-08T09:40:50;6.22;;;2.95;;
15258;SDS011;34462;51.368;12.364;2023-10-08T09:43:20;3.30;;;2.80;;
15258;SDS011;34462;51.368;12.364;2023-10-08T09:45:52;5.50;;;3.25;;
15258;SDS011;34462;51.368;12.364;2023-10-08T09:48:27;5.57;;;3.40;;
15258;SDS011;34462;51.368;12.364;2023-10-08T09:50:58;5.35;;;4.30;;
15258;SDS011;34462;51.368;12.364;2023-10-08T09:53:36;3.97;;;3.53;;
15258;SDS011;34462;51.368;12.364;2023-10-08T09:56:15;5.78;;;3.80;;
15258;SDS011;34462;51.368;12.364;2023-10-08T09:58:46;6.90;;;4.03;;
15258;SDS011;34462;51.368;12.364;2023-10-08T10:01:18;6.47;;;4.40;;
15258;SDS011;34462;51.368;12.364;2023-10-08T10:03:49;6.63;;;4.35;;
15258;SDS011;34462;51.368;12.364;2023-10-08T10:06:18;7.47;;;4.70;;
15258;SDS011;34462;51.368;12.364;2023-10-08T10:08:47;6.35;;;4.50;;
15258;SDS011;34462;51.368;12.364;2023-10-08T10:11:16;5.85;;;4.43;;
15258;SDS011;34462;51.368;12.364;2023-10-08T10:13:45;8.07;;;5.03;;
15258;SDS011;34462;51.368;12.364;2023-10-08T10:16:20;6.97;;;5.20;;
15258;SDS011;34462;51.368;12.364;2023-10-08T10:18:49;7.68;;;5.30;;
15258;SDS011;34462;51.368;12.364;2023-10-08T10:21:24;8.02;;;7.03;;
15258;SDS011;34462;51.368;12.364;2023-10-08T10:23:57;8.15;;;7.30;;
15258;SDS011;34462;51.368;12.364;2023-10-08T10:26:26;9.30;;;6.18;;
15258;SDS011;34462;51.368;12.364;2023-10-08T10:31:50;8.63;;;4.57;;
15258;SDS011;34462;51.368;12.364;2023-10-08T10:34:21;6.90;;;4.72;;
15258;SDS011;34462;51.368;12.364;2023-10-08T10:36:54;7.70;;;4.13;;
15258;SDS011;34462;51.368;12.364;2023-10-08T10:39:29;6.03;;;3.95;;
15258;SDS011;34462;51.368;12.364;2023-10-08T10:42:01;6.97;;;4.03;;
15258;SDS011;34462;51.368;12.364;2023-10-08T10:44:33;7.95;;;4.38;;
15258;SDS011;34462;51.368;12.364;2023-10-08T10:47:04;6.00;;;4.47;;
15258;SDS011;34462;51.368;12.364;2023-10-08T10:49:51;7.03;;;4.72;;
15258;SDS011;34462;51.368;12.364;2023-10-08T10:52:21;7.32;;;4.50;;
15258;SDS011;34462;51.368;12.364;2023-10-08T10:55:01;6.18;;;4.35;;
15258;SDS011;34462;51.368;12.364;2023-10-08T10:57:47;6.28;;;3.95;;
15258;SDS011;34462;51.368;12.364;2023-10-08T11:00:21;5.35;;;3.67;;
15258;SDS011;34462;51.368;12.364;2023-10-08T11:03:09;4.45;;;3.67;;
15258;SDS011;34462;51.368;12.364;2023-10-08T11:05:46;6.45;;;3.80;;
15258;SDS011;34462;51.368;12.364;2023-10-08T11:08:21;4.55;;;4.13;;
15258;SDS011;34462;51.368;12.364;2023-10-08T11:10:53;5.03;;;3.67;;
15258;SDS011;34462;51.368;12.364;2023-10-08T11:13:25;12.45;;;4.43;;
15258;SDS011;34462;51.368;12.364;2023-10-08T11:16:04;8.88;;;4.18;;
15258;SDS011;34462;51.368;12.364;2023-10-08T11:18:42;7.82;;;3.90;;
15258;SDS011;34462;51.368;12.364;2023-10-08T11:21:13;5.68;;;3.70;;
15258;SDS011;34462;51.368;12.364;2023-10-08T11:23:43;4.43;;;4.03;;
15258;SDS011;34462;51.368;12.364;2023-10-08T11:26:19;6.13;;;3.92;;
15258;SDS011;34462;51.368;12.364;2023-10-08T11:28:58;5.32;;;3.95;;
15258;SDS011;34462;51.368;12.364;2023-10-08T11:31:29;6.03;;;4.15;;
15258;SDS011;34462;51.368;12.364;2023-10-08T11:34:02;5.03;;;3.33;;
15258;SDS011;34462;51.368;12.364;2023-10-08T11:36:36;5.00;;;3.50;;
15258;SDS011;34462;51.368;12.364;2023-10-08T11:39:16;9.50;;;3.60;;
15258;SDS011;34462;51.368;12.364;2023-10-08T11:41:57;4.70;;;3.78;;
15258;SDS011;34462;51.368;12.364;2023-10-08T11:44:30;7.07;;;3.60;;
15258;SDS011;34462;51.368;12.364;2023-10-08T11:47:03;8.27;;;4.10;;
15258;SDS011;34462;51.368;12.364;2023-10-08T11:49:41;5.60;;;3.10;;
15258;SDS011;34462;51.368;12.364;2023-10-08T11:52:17;5.63;;;3.83;;
15258;SDS011;34462;51.368;12.364;2023-10-08T11:54:48;4.90;;;3.95;;
15258;SDS011;34462;51.368;12.364;2023-10-08T11:57:19;6.22;;;4.10;;
15258;SDS011;34462;51.368;12.364;2023-10-08T11:59:49;4.85;;;4.18;;
15258;SDS011;34462;51.368;12.364;2023-10-08T12:02:21;4.55;;;3.83;;
15258;SDS011;34462;51.368;12.364;2023-10-08T12:04:51;4.43;;;3.72;;
15258;SDS011;34462;51.368;12.364;2023-10-08T12:07:24;5.95;;;3.88;;
15258;SDS011;34462;51.368;12.364;2023-10-08T12:09:54;6.03;;;4.03;;
15258;SDS011;34462;51.368;12.364;2023-10-08T12:12:22;5.68;;;3.72;;
15258;SDS011;34462;51.368;12.364;2023-10-08T12:14:50;6.88;;;3.70;;
15258;SDS011;34462;51.368;12.364;2023-10-08T12:17:21;5.32;;;3.50;;
15258;SDS011;34462;51.368;12.364;2023-10-08T12:20:06;5.68;;;3.58;;
15258;SDS011;34462;51.368;12.364;2023-10-08T12:22:49;5.68;;;3.05;;
15258;SDS011;34462;51.368;12.364;2023-10-08T12:25:18;9.55;;;3.75;;
15258;SDS011;34462;51.368;12.364;2023-10-08T12:27:47;6.68;;;2.90;;
15258;SDS011;34462;51.368;12.364;2023-10-08T12:30:15;5.45;;;3.33;;
15258;SDS011;34462;51.368;12.364;2023-10-08T12:32:43;6.28;;;3.08;;
15258;SDS011;34462;51.368;12.364;2023-10-08T12:35:14;5.75;;;3.08;;
15258;SDS011;34462;51.368;12.364;2023-10-08T12:37:42;4.20;;;3.13;;
15258;SDS011;34462;51.368;12.364;2023-10-08T12:40:11;7.30;;;2.85;;
15258;SDS011;34462;51.368;12.364;2023-10-08T12:42:50;4.03;;;2.83;;
15258;SDS011;34462;51.368;12.364;2023-10-08T12:45:18;4.25;;;2.85;;
15258;SDS011;34462;51.368;12.364;2023-10-08T12:47:48;3.45;;;3.08;;
15258;SDS011;34462;51.368;12.364;2023-10-08T12:50:19;6.03;;;3.38;;
15258;SDS011;34462;51.368;12.364;2023-10-08T12:52:56;4.85;;;2.63;;
15258;SDS011;34462;51.368;12.364;2023-10-08T12:55:30;4.85;;;3.30;;
15258;SDS011;34462;51.368;12.364;2023-10-08T12:58:06;5.68;;;3.30;;
15258;SDS011;34462;51.368;12.364;2023-10-08T13:00:36;6.03;;;2.72;;
15258;SDS011;34462;51.368;12.364;2023-10-08T13:03:07;4.22;;;2.70;;
15258;SDS011;34462;51.368;12.364;2023-10-08T13:05:43;6.38;;;2.80;;
15258;SDS011;34462;51.368;12.364;2023-10-08T13:08:11;3.53;;;3.05;;
15258;SDS011;34462;51.368;12.364;2023-10-08T13:10:40;6.65;;;3.25;;
15258;SDS011;34462;51.368;12.364;2023-10-08T13:13:10;5.47;;;3.00;;
15258;SDS011;34462;51.368;12.364;2023-10-08T13:15:39;6.43;;;3.50;;
15258;SDS011;34462;51.368;12.364;2023-10-08T13:18:09;5.43;;;3.35;;
15258;SDS011;34462;51.368;12.364;2023-10-08T13:20:37;5.38;;;3.42;;
15258;SDS011;34462;51.368;12.364;2023-10-08T13:23:09;6.28;;;3.17;;
15258;SDS011;34462;51.368;12.364;2023-10-08T13:25:37;6.50;;;3.00;;
15258;SDS011;34462;51.368;12.364;2023-10-08T13:28:06;3.85;;;2.88;;
15258;SDS011;34462;51.368;12.364;2023-10-08T13:30:37;5.15;;;3.10;;
15258;SDS011;34462;51.368;12.364;2023-10-08T13:33:06;5.22;;;2.83;;
15258;SDS011;34462;51.368;12.364;2023-10-08T13:35:36;4.90;;;2.90;;
15258;SDS011;34462;51.368;12.364;2023-10-08T13:38:04;5.00;;;3.80;;
15258;SDS011;34462;51.368;12.364;2023-10-08T13:40:37;5.88;;;4.85;;
15258;SDS011;34462;51.368;12.364;2023-10-08T13:43:10;5.75;;;3.00;;
15258;SDS011;34462;51.368;12.364;2023-10-08T13:45:39;5.65;;;2.78;;
15258;SDS011;34462;51.368;12.364;2023-10-08T13:48:08;4.68;;;2.78;;
15258;SDS011;34462;51.368;12.364;2023-10-08T13:50:40;3.85;;;2.80;;
15258;SDS011;34462;51.368;12.364;2023-10-08T13:53:10;3.85;;;2.50;;
15258;SDS011;34462;51.368;12.364;2023-10-08T13:55:41;4.32;;;3.13;;
15258;SDS011;34462;51.368;12.364;2023-10-08T13:58:11;3.83;;;2.50;;
15258;SDS011;34462;51.368;12.364;2023-10-08T14:00:40;5.55;;;2.63;;
15258;SDS011;34462;51.368;12.364;2023-10-08T14:03:08;5.15;;;2.78;;
15258;SDS011;34462;51.368;12.364;2023-10-08T14:05:38;6.40;;;2.70;;
15258;SDS011;34462;51.368;12.364;2023-10-08T14:08:06;5.63;;;2.53;;
15258;SDS011;34462;51.368;12.364;2023-10-08T14:10:43;5.05;;;2.58;;
15258;SDS011;34462;51.368;12.364;2023-10-08T14:13:13;3.92;;;2.92;;
15258;SDS011;34462;51.368;12.364;2023-10-08T14:15:45;4.03;;;2.30;;
15258;SDS011;34462;51.368;12.364;2023-10-08T14:18:22;7.97;;;3.00;;
15258;SDS011;34462;51.368;12.364;2023-10-08T14:20:55;6.40;;;3.00;;
15258;SDS011;34462;51.368;12.364;2023-10-08T14:23:23;4.53;;;2.78;;
15258;SDS011;34462;51.368;12.364;2023-10-08T14:25:53;4.97;;;2.55;;
15258;SDS011;34462;51.368;12.364;2023-10-08T14:28:29;5.68;;;2.53;;
15258;SDS011;34462;51.368;12.364;2023-10-08T14:31:09;4.18;;;2.45;;
15258;SDS011;34462;51.368;12.364;2023-10-08T14:33:42;4.25;;;2.45;;
15258;SDS011;34462;51.368;12.364;2023-10-08T14:36:22;6.50;;;3.00;;
15258;SDS011;34462;51.368;12.364;2023-10-08T14:39:20;5.20;;;3.03;;
15258;SDS011;34462;51.368;12.364;2023-10-08T14:42:12;4.53;;;2.88;;
15258;SDS011;34462;51.368;12.364;2023-10-08T14:44:58;7.57;;;3.50;;
15258;SDS011;34462;51.368;12.364;2023-10-08T14:47:26;4.68;;;3.15;;
15258;SDS011;34462;51.368;12.364;2023-10-08T14:49:54;4.85;;;3.35;;
15258;SDS011;34462;51.368;12.364;2023-10-08T14:52:22;5.55;;;2.88;;
15258;SDS011;34462;51.368;12.364;2023-10-08T14:54:51;4.43;;;2.83;;
15258;SDS011;34462;51.368;12.364;2023-10-08T14:57:21;6.30;;;3.22;;
15258;SDS011;34462;51.368;12.364;2023-10-08T14:59:52;4.80;;;3.28;;
15258;SDS011;34462;51.368;12.364;2023-10-08T15:02:22;5.97;;;3.55;;
15258;SDS011;34462;51.368;12.364;2023-10-08T15:04:55;6.10;;;3.70;;
15258;SDS011;34462;51.368;12.364;2023-10-08T15:07:23;6.38;;;3.60;;
15258;SDS011;34462;51.368;12.364;2023-10-08T15:09:54;6.60;;;4.03;;
15258;SDS011;34462;51.368;12.364;2023-10-08T15:12:25;4.13;;;3.05;;
15258;SDS011;34462;51.368;12.364;2023-10-08T15:14:53;4.32;;;3.65;;